• Join FlightAware (Why Join?)
  • Login
  • US Flag 
01:06PM EDT


 

Airport Tracker/Info


-or-


 

Live Flight TrackerFlight Track Log ✈ RPA3161 ✈ 17-Jun-2013 ✈ KBTV - KDCA

Flight Track Log - Related Links

Times and Time Zones

All times are in EDT time to prevent confusion due to time zone crossing. See the RPA3161 flight status page for this flight to view local times or setup timezone preferences in your user account.

Time Position Orientation Groundspeed Altitude Reporting Facility
EDT Latitude Longitude Course Direction KTS MPH feet Rate Location/Type
12:25PM 44.1690 -73.2616 195° South  Level FlightAware Approximate
12:26PM 44.0692 -73.2990 195° South  Level FlightAware Approximate
12:26PM 44.3847 -73.3464 198° South 282 325 5,400  Level Boston Center
12:27PM 43.9688 -73.3327 194° South  Level FlightAware Approximate
12:27PM 44.3200 -73.3947 208° Southwest 271 312 7,500  Level Boston Center
12:28PM 43.8687 -73.3681 195° South  Level FlightAware Approximate
12:28PM 44.2403 -73.4369 201° Southwest 271 312 10,900  Level Boston Center
12:29PM 43.7689 -73.4055 195° South  Level FlightAware Approximate
12:29PM 44.1550 -73.4414 182° South 300 345 13,300  Level Boston Center
12:30PM 43.6692 -73.4428 195° South  Level FlightAware Approximate
12:30PM 44.0944 -73.4461 183° South 311 358 15,200  Level Boston Center
12:31PM 43.5708 -73.4861 198° South  Level FlightAware Approximate
12:31PM 43.9819 -73.4528 182° South 316 364 18,600  Level Boston Center
12:32PM 43.8983 -73.4803 193° South 316 364 20,700 1,980 Climbing Boston Center
12:33PM 43.8039 -73.5475 207° Southwest 312 359 23,000 1,920 Climbing Boston Center
12:34PM 43.7344 -73.6211 217° Southwest 322 371 24,600 1,740 Climbing Boston Center
12:35PM 43.6689 -73.6944 219° Southwest 331 381 26,500 1,560 Climbing Boston Center
12:36PM 43.5953 -73.7644 215° Southwest 331 381 28,100 1,560 Climbing Boston Center
12:37PM 43.5047 -73.8483 214° Southwest 331 381 30,000 900 Climbing Boston Center
12:38PM 43.4047 -73.8461 179° South 324 373 30,000 180 Level Boston Center
12:39PM 43.2922 -73.8292 174° South 348 400 30,400 780 Climbing Boston Center
12:40PM 43.1883 -73.8156 175° South 364 419 31,600 780 Climbing Boston Center
12:41PM 43.0842 -73.8017 174° South 376 433 32,000 180 Climbing Boston Center
12:42PM 42.9842 -73.7911 176° South 376 433 32,000  Level Boston Center
12:43PM 42.8844 -73.7775 174° South 370 426 32,000  Level Boston Center
12:44PM 42.7844 -73.7639 174° South 364 419 32,000  Level Boston Center
12:45PM 42.6806 -73.7533 176° South 370 426 32,000  Level Boston Center
12:46PM 42.5908 -73.7458 176° South 370 426 32,000  Level Boston Center
12:47PM 42.4889 -73.7325 174° South 364 419 32,000  Level Boston Center
12:48PM 42.3892 -73.7192 174° South 364 419 32,000  Level Boston Center
12:49PM 42.2869 -73.7031 173° South 369 425 32,000  Level Boston Center
12:50PM 42.1850 -73.6897 174° South 369 425 32,000  Level Boston Center
12:51PM 42.0831 -73.6792 176° South 369 425 32,000  Level Boston Center
12:52PM 41.9789 -73.6689 176° South 374 430 32,000  Level Boston Center
12:53PM 41.8750 -73.6583 176° South 374 430 32,000  Level Boston Center
12:54PM 41.7731 -73.6425 173° South 374 430 32,000  Level Boston Center
12:55PM 41.6714 -73.5933 160° South 374 430 32,000  Level Boston Center
12:56PM 41.5717 -73.5472 161° South 374 430 32,000 -60 Level Boston Center
12:58PM 41.4006 -73.5178 173° South 368 423 31,900  Descending New York Center
12:59PM 41.3139 -73.5667 203° Southwest 345 397 32,000  Climbing New York Center
01:00PM 41.2475 -73.6467 222° Southwest 319 367 32,000  Level New York Center
01:01PM 41.1911 -73.7378 231° Southwest 319 367 32,000  Level New York Center
01:02PM 41.1364 -73.8319 232° Southwest 319 367 32,000  Level New York Center
01:03PM 41.0819 -73.9231 232° Southwest 325 374 32,000  Level New York Center
01:04PM 41.0253 -74.0167 231° Southwest 325 374 32,000  Level New York Center
01:05PM 40.9706 -74.1100 232° Southwest 330 380 32,000 -300 Level New York Center
01:06PM 40.9119 -74.2006 229° Southwest 330 380 31,500 -1,140 Descending New York Center
01:07PM 40.8594 -74.2856 231° Southwest 330 380 29,800 -1,800 Descending New York Center
01:08PM 40.8000 -74.3842 231° Southwest 335 386 28,000 -900 Descending New York Center
01:09PM 40.7450 -74.4769 232° Southwest 335 386 28,000  Level New York Center
01:10PM 40.6881 -74.5725 232° Southwest 335 386 28,000 -360 Level New York Center
01:11PM 40.6286 -74.6647 230° Southwest 335 386 27,300 -840 Descending New York Center
01:12PM 40.5714 -74.7572 231° Southwest 335 386 26,400 -1,020 Descending New York Center
01:13PM 40.5100 -74.8436 227° Southwest 335 386 25,400 -960 Descending New York Center
01:14PM 40.4508 -74.9328 229° Southwest 335 386 24,500 -900 Descending New York Center
01:15PM 40.3894 -75.0164 226° Southwest 330 380 23,600 -900 Descending New York Center
01:16PM 40.3322 -75.0972 227° Southwest 325 374 22,700 -840 Descending New York Center
01:17PM 40.2728 -75.1833 228° Southwest 320 368 22,000 -360 Descending New York Center
01:18PM 40.2133 -75.2667 227° Southwest 320 368 22,000  Level New York Center
01:19PM 40.1558 -75.3497 228° Southwest 320 368 22,000  Level New York Center
01:20PM 40.0986 -75.4303 227° Southwest 315 362 22,000  Level New York Center
01:21PM 40.0611 -75.5306 244° Southwest 310 357 22,000  Level New York Center
01:22PM 40.0258 -75.6339 246° West 310 357 22,000  Level New York Center
01:23PM 39.9881 -75.7369 244° Southwest 317 365 22,000  Level New York Center
01:24PM 39.9525 -75.8403 246° West 317 365 22,000  Level New York Center
01:25PM 39.9189 -75.9406 246° West 317 365 22,000  Level New York Center
01:26PM 39.8831 -76.0436 246° West 317 365 22,000 -840 Level New York Center
01:27PM 39.8369 -76.1428 239° Southwest 312 359 20,400 -1,680 Descending New York Center
01:28PM 39.7733 -76.2081 218° Southwest 298 343 18,700 -1,800 Descending New York Center
01:29PM 39.6933 -76.2694 211° Southwest 304 350 16,900 -1,680 Descending New York Center
01:30PM 39.6167 -76.3167 205° Southwest 307 353 15,400 -1,620 Descending Potomac TRACON
01:31PM 39.5500 -76.3667 210° Southwest 300 345 13,900 -1,620 Descending Potomac TRACON
01:32PM 39.4833 -76.4333 218° Southwest 289 333 12,200 -960 Descending Potomac TRACON
01:33PM 39.4167 -76.4833 210° Southwest 284 327 12,000 -120 Descending Potomac TRACON
01:34PM 39.3500 -76.5333 210° Southwest 285 328 12,000  Level Potomac TRACON
01:35PM 39.2667 -76.5833 205° Southwest 285 328 12,000 -720 Level Potomac TRACON
01:36PM 39.2000 -76.6333 210° Southwest 284 327 10,600 -1,020 Descending Potomac TRACON
01:37PM 39.1333 -76.7000 218° Southwest 277 319 10,000 -300 Descending Potomac TRACON
01:38PM 39.0833 -76.7667 226° Southwest 236 272 10,000 -240 Level Potomac TRACON
01:39PM 39.0500 -76.8167 229° Southwest 233 268 9,600 -900 Descending Potomac TRACON
01:40PM 39.0000 -76.8667 218° Southwest 233 268 8,300 -1,320 Descending Potomac TRACON
01:41PM 38.9667 -76.9333 237° Southwest 225 259 7,000 -1,260 Descending Potomac TRACON
01:42PM 38.9833 -77.0167 284° West 223 257 5,800 -1,200 Descending Potomac TRACON
01:43PM 39.0167 -77.0667 311° West 218 251 4,600 -1,200 Descending Potomac TRACON
01:44PM 39.0167 -77.1333 270° West 208 239 3,600 -960 Descending Potomac TRACON
01:45PM 38.9667 -77.1500 195° South 190 219 2,800 -840 Descending Potomac TRACON